Time;durP1;ratioP1;P1;durP2;ratioP2;P2;SDS_P1;SDS_P2;PMS_P1;PMS_P2;Temp;Humidity;BMP_temperature;BMP_pressure;BME280_temperature;BME280_humidity;BME280_pressure;Samples;Min_cycle;Max_cycle;Signal;HPM_P1;HPM_P2
2024/01/18 00:01:33;;;;;;;4.57;4.28;;;9.80;99.90;;;;;;5007336;28;20030;-92
2024/01/18 00:04:00;;;;;;;3.47;3.25;;;9.80;99.90;;;;;;4990894;28;20023;-95
2024/01/18 00:06:27;;;;;;;3.45;3.15;;;9.80;99.90;;;;;;5011936;28;20055;-93
2024/01/18 00:08:52;;;;;;;4.45;3.20;;;9.70;99.90;;;;;;4996759;28;20094;-92
2024/01/18 00:11:18;;;;;;;3.13;2.92;;;9.70;99.90;;;;;;4995230;28;20026;-92
2024/01/18 00:13:44;;;;;;;4.40;3.78;;;9.70;99.90;;;;;;4998392;28;20034;-92
2024/01/18 00:16:10;;;;;;;4.05;3.67;;;9.60;99.90;;;;;;4999350;28;20015;-93
2024/01/18 00:18:36;;;;;;;4.40;4.10;;;9.50;99.90;;;;;;5000320;28;20018;-93
2024/01/18 00:21:03;;;;;;;4.28;3.88;;;9.50;99.90;;;;;;5000244;28;20031;-96
2024/01/18 00:23:29;;;;;;;5.57;5.18;;;9.40;99.90;;;;;;4991425;23;20054;-93
2024/01/18 00:25:58;;;;;;;4.57;4.18;;;9.30;99.90;;;;;;4967492;28;20062;-92
2024/01/18 00:28:23;;;;;;;6.95;5.07;;;9.30;99.90;;;;;;4972950;28;20025;-92
2024/01/18 00:30:49;;;;;;;20.33;13.07;;;9.20;99.90;;;;;;4978463;28;20105;-92
2024/01/18 00:33:15;;;;;;;26.20;15.88;;;8.60;99.90;;;;;;4980761;28;20033;-92
2024/01/18 00:35:40;;;;;;;30.98;19.20;;;7.80;99.90;;;;;;4972700;28;20027;-92
2024/01/18 00:38:06;;;;;;;22.48;16.73;;;7.10;99.90;;;;;;4980753;28;20034;-94
2024/01/18 00:40:35;;;;;;;26.58;16.05;;;6.40;99.90;;;;;;4978646;28;20031;-93
2024/01/18 00:43:00;;;;;;;23.30;16.08;;;5.90;99.90;;;;;;4981239;28;20015;-94
2024/01/18 00:45:29;;;;;;;24.67;16.10;;;5.50;99.90;;;;;;4969446;28;20416;-92
2024/01/18 00:47:55;;;;;;;24.58;16.20;;;5.20;99.90;;;;;;4977233;28;20094;-93
2024/01/18 00:50:20;;;;;;;21.15;13.90;;;5.00;99.90;;;;;;4979561;28;20034;-92
2024/01/18 00:52:46;;;;;;;23.20;14.93;;;4.70;99.90;;;;;;4977579;28;20019;-91
2024/01/18 00:55:12;;;;;;;19.10;13.75;;;4.50;99.90;;;;;;4974073;28;20031;-91
2024/01/18 00:57:37;;;;;;;21.65;14.00;;;4.40;99.90;;;;;;4975826;28;20031;-92
2024/01/18 01:00:05;;;;;;;18.55;14.30;;;4.20;99.90;;;;;;4992912;28;20035;-93
2024/01/18 01:02:30;;;;;;;17.83;15.25;;;4.10;99.90;;;;;;4993082;28;20093;-92
2024/01/18 01:04:56;;;;;;;20.33;12.45;;;4.10;99.90;;;;;;4988704;28;20023;-93
2024/01/18 01:07:22;;;;;;;21.52;13.70;;;4.00;99.90;;;;;;4986225;28;20038;-95
2024/01/18 01:09:47;;;;;;;24.55;15.30;;;3.90;99.90;;;;;;4987005;28;20027;-95
2024/01/18 01:12:13;;;;;;;27.13;16.25;;;3.90;99.90;;;;;;4987851;28;20030;-92
2024/01/18 01:14:39;;;;;;;25.38;16.50;;;3.70;99.90;;;;;;4996725;28;20497;-93
2024/01/18 01:17:04;;;;;;;22.50;13.82;;;3.70;99.90;;;;;;4975728;28;20027;-93
2024/01/18 01:19:30;;;;;;;23.90;16.35;;;3.70;99.90;;;;;;4975039;28;20042;-93
2024/01/18 01:21:56;;;;;;;26.88;15.73;;;3.50;99.90;;;;;;4970735;28;20031;-91
2024/01/18 01:24:22;;;;;;;23.65;15.43;;;3.50;99.90;;;;;;4994586;28;20025;-92
2024/01/18 01:26:47;;;;;;;20.65;12.98;;;3.30;99.90;;;;;;4975285;28;20492;-93
2024/01/18 01:29:14;;;;;;;19.48;16.23;;;3.30;99.90;;;;;;4979047;28;20026;-94
2024/01/18 01:31:40;;;;;;;18.00;12.07;;;3.20;99.90;;;;;;4978533;28;20089;-93
2024/01/18 01:34:06;;;;;;;22.10;12.60;;;3.10;99.90;;;;;;4970449;28;20059;-92
2024/01/18 01:36:31;;;;;;;15.75;9.60;;;3.10;99.90;;;;;;4978533;28;20429;-94
2024/01/18 01:38:57;;;;;;;18.38;14.02;;;3.10;99.90;;;;;;4977935;28;20035;-92
2024/01/18 01:41:23;;;;;;;15.60;12.18;;;3.00;99.90;;;;;;4979095;28;20026;-92
2024/01/18 01:44:02;;;;;;;13.00;10.93;;;3.10;99.90;;;;;;4986531;28;20023;-93
2024/01/18 01:46:28;;;;;;;14.10;10.82;;;3.00;99.90;;;;;;4977381;28;20026;-92
2024/01/18 01:49:01;;;;;;;11.32;9.35;;;2.90;99.90;;;;;;4977060;28;20105;-92
2024/01/18 01:51:50;;;;;;;12.10;10.07;;;2.80;99.90;;;;;;4979816;28;20031;-92
2024/01/18 01:54:19;;;;;;;12.35;10.75;;;2.80;99.90;;;;;;4974292;28;20042;-92
2024/01/18 01:56:47;;;;;;;9.88;8.23;;;2.70;99.90;;;;;;4975932;28;20037;-93
2024/01/18 01:59:19;;;;;;;10.70;9.63;;;2.70;99.90;;;;;;4978918;28;20034;-93
2024/01/18 02:01:50;;;;;;;12.02;10.82;;;2.70;99.90;;;;;;4989442;28;20045;-92
2024/01/18 02:04:16;;;;;;;12.20;10.98;;;2.70;99.90;;;;;;4954007;28;20607;-93
2024/01/18 02:06:43;;;;;;;10.63;9.48;;;2.60;99.90;;;;;;4974665;28;20058;-92
2024/01/18 02:09:22;;;;;;;11.48;10.35;;;2.50;99.90;;;;;;4977083;28;20026;-93
2024/01/18 02:11:47;;;;;;;11.18;9.98;;;2.50;99.90;;;;;;4978873;28;20394;-93
2024/01/18 02:14:16;;;;;;;13.50;10.23;;;2.50;99.90;;;;;;4977496;28;20189;-92
2024/01/18 02:16:42;;;;;;;11.45;9.98;;;2.50;99.90;;;;;;4978870;28;20038;-92
2024/01/18 02:19:08;;;;;;;10.95;9.65;;;2.50;99.90;;;;;;4992673;28;20031;-93
2024/01/18 02:21:34;;;;;;;12.38;10.73;;;2.40;99.90;;;;;;4992751;28;20041;-93
2024/01/18 02:24:22;;;;;;;13.23;11.85;;;2.40;99.90;;;;;;4987123;28;20031;-93
2024/01/18 02:26:48;;;;;;;12.75;10.07;;;2.40;99.90;;;;;;4959923;28;20073;-93
2024/01/18 02:29:14;;;;;;;13.63;10.80;;;2.40;99.90;;;;;;4982917;28;20390;-92
2024/01/18 02:31:39;;;;;;;12.30;10.93;;;2.50;99.90;;;;;;4983000;28;20034;-93
2024/01/18 02:34:14;;;;;;;13.43;10.40;;;2.40;99.90;;;;;;4981572;28;20037;-93
2024/01/18 02:36:39;;;;;;;;;;;2.30;99.90;;;;;;4978790;28;20034;-90
2024/01/18 02:39:05;;;;;;;10.68;8.52;;;2.30;99.90;;;;;;4981682;28;20344;-92
2024/01/18 02:41:32;;;;;;;15.68;11.40;;;2.30;99.90;;;;;;4981642;28;20027;-92
2024/01/18 02:44:00;;;;;;;12.60;11.32;;;2.30;99.90;;;;;;4982400;28;20031;-92
2024/01/18 02:46:25;;;;;;;13.23;9.50;;;2.20;99.90;;;;;;4967344;28;20015;-91
2024/01/18 02:48:51;;;;;;;15.18;12.10;;;2.20;99.90;;;;;;4983242;28;20019;-93
2024/01/18 02:51:17;;;;;;;14.20;11.50;;;2.20;99.90;;;;;;4981041;28;20077;-93
2024/01/18 02:53:43;;;;;;;13.02;11.32;;;2.20;99.90;;;;;;4981226;28;20034;-92
2024/01/18 02:56:08;;;;;;;15.07;11.90;;;2.20;99.90;;;;;;4981796;28;20037;-92
2024/01/18 02:58:34;;;;;;;16.38;11.02;;;2.20;99.90;;;;;;4977866;28;20066;-91
2024/01/18 03:01:00;;;;;;;12.50;10.40;;;2.20;99.90;;;;;;4978579;28;20031;-93
2024/01/18 03:03:25;;;;;;;13.90;9.85;;;2.10;99.90;;;;;;4981218;28;20070;-92
2024/01/18 03:05:51;;;;;;;15.88;11.57;;;2.20;99.90;;;;;;4966772;28;20027;-91
2024/01/18 03:08:17;;;;;;;13.35;11.88;;;2.20;99.90;;;;;;4979892;28;20026;-92
2024/01/18 03:10:43;;;;;;;14.10;12.13;;;2.30;99.90;;;;;;4976797;28;20098;-92
2024/01/18 03:13:08;;;;;;;14.80;12.20;;;2.20;99.90;;;;;;4974986;28;20095;-92
2024/01/18 03:15:34;;;;;;;14.57;11.63;;;2.10;99.90;;;;;;4982105;28;20041;-93
2024/01/18 03:18:00;;;;;;;14.88;10.38;;;2.00;99.90;;;;;;4980893;28;20039;-92
2024/01/18 03:20:25;;;;;;;14.23;11.55;;;2.00;99.90;;;;;;4980063;28;20050;-91
2024/01/18 03:22:51;;;;;;;15.25;13.23;;;2.00;99.90;;;;;;4976276;28;20031;-92
2024/01/18 03:25:17;;;;;;;15.38;12.57;;;2.00;99.90;;;;;;4981902;28;20069;-92
2024/01/18 03:27:43;;;;;;;18.85;13.55;;;2.00;99.90;;;;;;4983252;28;20031;-92
2024/01/18 03:30:09;;;;;;;16.65;11.45;;;1.90;99.90;;;;;;4981499;28;20038;-91
2024/01/18 03:32:35;;;;;;;21.02;14.52;;;2.00;99.90;;;;;;4993830;28;20078;-91
2024/01/18 03:35:01;;;;;;;17.60;13.20;;;2.00;99.90;;;;;;4980979;28;20023;-92
2024/01/18 03:37:26;;;;;;;18.63;12.70;;;2.00;99.90;;;;;;4982718;28;20401;-92
2024/01/18 03:39:52;;;;;;;17.98;14.48;;;2.10;99.90;;;;;;4980473;28;20054;-92
2024/01/18 03:42:18;;;;;;;16.98;13.15;;;2.10;99.90;;;;;;4982896;28;20071;-92
2024/01/18 03:44:44;;;;;;;18.40;12.80;;;2.00;99.90;;;;;;4974903;28;20030;-92
2024/01/18 03:47:09;;;;;;;22.20;15.73;;;2.00;99.90;;;;;;4972258;28;20023;-92
2024/01/18 03:49:35;;;;;;;23.63;14.25;;;1.90;99.90;;;;;;4979103;28;20043;-92
2024/01/18 03:52:01;;;;;;;20.40;14.48;;;1.90;99.90;;;;;;4979413;28;20037;-92
2024/01/18 03:54:27;;;;;;;17.05;13.32;;;1.90;99.90;;;;;;4983239;28;20026;-91
2024/01/18 03:56:53;;;;;;;20.80;14.60;;;1.90;99.90;;;;;;4977271;28;20023;-92
2024/01/18 03:59:23;;;;;;;21.58;14.80;;;1.90;99.90;;;;;;4978512;28;20054;-92
2024/01/18 04:01:49;;;;;;;22.95;15.23;;;1.80;99.90;;;;;;4980438;28;20035;-91
2024/01/18 04:04:15;;;;;;;21.77;15.35;;;1.80;99.90;;;;;;4982844;28;20023;-91
2024/01/18 04:06:41;;;;;;;21.52;13.23;;;1.80;99.90;;;;;;4993607;28;20030;-93
2024/01/18 04:09:08;;;;;;;20.45;13.75;;;1.80;99.90;;;;;;4979913;28;20023;-92
2024/01/18 04:11:34;;;;;;;22.95;14.55;;;1.90;99.90;;;;;;4981426;28;20049;-93
2024/01/18 04:14:00;;;;;;;25.40;16.15;;;1.80;99.90;;;;;;4982080;28;20042;-91
2024/01/18 04:16:26;;;;;;;25.50;16.35;;;1.80;99.90;;;;;;4975141;28;20031;-93
2024/01/18 04:18:51;;;;;;;24.98;16.75;;;1.80;99.90;;;;;;4981932;28;20023;-92
2024/01/18 04:21:17;;;;;;;25.10;17.35;;;1.80;99.90;;;;;;4981195;28;20027;-92
2024/01/18 04:23:43;;;;;;;25.95;17.30;;;1.80;99.90;;;;;;4980973;28;20517;-92
2024/01/18 04:26:09;;;;;;;29.05;18.15;;;1.80;99.90;;;;;;4998315;28;20034;-92
2024/01/18 04:28:34;;;;;;;27.83;17.45;;;1.70;99.90;;;;;;4982491;28;20114;-92
2024/01/18 04:31:00;;;;;;;28.88;17.17;;;1.70;99.90;;;;;;4977532;28;20098;-92
2024/01/18 04:33:25;;;;;;;24.98;17.55;;;1.70;99.90;;;;;;4969793;28;20026;-93
2024/01/18 04:35:52;;;;;;;26.58;15.80;;;1.70;99.90;;;;;;4981059;28;20850;-92
2024/01/18 04:38:17;;;;;;;30.83;20.02;;;1.70;99.90;;;;;;4981297;28;20029;-90
2024/01/18 04:40:43;;;;;;;33.20;22.08;;;1.60;99.90;;;;;;4981811;28;20026;-93
2024/01/18 04:43:09;;;;;;;36.80;21.35;;;1.60;99.90;;;;;;5008937;28;20091;-93
2024/01/18 04:45:35;;;;;;;32.58;18.83;;;1.60;99.90;;;;;;5006031;28;20026;-92
2024/01/18 04:48:04;;;;;;;34.80;20.05;;;1.50;99.90;;;;;;4982570;28;20143;-91
2024/01/18 04:50:30;;;;;;;37.08;20.77;;;1.50;99.90;;;;;;4976128;28;20041;-94
2024/01/18 04:52:56;;;;;;;28.00;16.45;;;1.50;99.90;;;;;;4975276;28;20114;-93
2024/01/18 04:55:21;;;;;;;25.05;14.63;;;1.50;99.90;;;;;;4984819;28;20031;-94
2024/01/18 04:57:49;;;;;;;25.38;15.50;;;1.50;99.90;;;;;;4967765;28;20045;-94
2024/01/18 05:00:26;;;;;;;26.92;14.65;;;1.50;99.90;;;;;;4983475;28;20070;-94
2024/01/18 05:02:55;;;;;;;24.88;15.20;;;1.40;99.90;;;;;;4982515;28;20038;-92
2024/01/18 05:05:21;;;;;;;25.35;15.93;;;1.40;99.90;;;;;;4964997;28;20034;-95
2024/01/18 05:07:46;;;;;;;27.00;16.13;;;1.40;99.90;;;;;;4973219;28;20070;-93
2024/01/18 05:10:12;;;;;;;23.55;15.55;;;1.40;99.90;;;;;;4965372;28;20035;-93
2024/01/18 05:12:38;;;;;;;23.20;15.30;;;1.30;99.90;;;;;;4966192;28;20035;-95
2024/01/18 05:15:05;;;;;;;29.13;17.48;;;1.40;99.90;;;;;;4977896;28;20027;-94
2024/01/18 05:17:37;;;;;;;25.58;16.20;;;1.30;99.90;;;;;;4979155;28;20122;-92
2024/01/18 05:20:07;;;;;;;22.98;12.40;;;1.20;99.90;;;;;;4992308;28;20034;-94
2024/01/18 05:22:35;;;;;;;24.70;14.65;;;1.20;99.90;;;;;;4961896;28;20067;-92
2024/01/18 05:25:02;;;;;;;29.20;19.25;;;1.10;99.90;;;;;;4994324;28;20053;-93
2024/01/18 05:27:30;;;;;;;41.72;22.40;;;1.10;99.90;;;;;;4996987;28;20073;-94
2024/01/18 05:29:56;;;;;;;;;;;1.10;99.90;;;;;;4968874;28;20034;-92
2024/01/18 05:32:23;;;;;;;20.20;12.25;;;1.00;99.90;;;;;;4939568;28;20361;-92
2024/01/18 05:34:58;;;;;;;21.58;14.38;;;1.00;99.90;;;;;;4958332;28;20047;-94
2024/01/18 05:37:23;;;;;;;18.55;10.18;;;1.00;99.90;;;;;;4945127;28;20046;-93
2024/01/18 05:40:01;;;;;;;22.75;13.98;;;1.10;99.90;;;;;;4942181;28;20030;-93
2024/01/18 05:42:39;;;;;;;20.70;15.18;;;1.10;99.90;;;;;;4946176;28;20053;-94
2024/01/18 05:45:06;;;;;;;22.25;14.15;;;1.10;99.90;;;;;;4945924;28;20030;-93
2024/01/18 05:47:40;;;;;;;23.48;14.48;;;1.10;99.90;;;;;;4945776;28;20035;-94
2024/01/18 05:50:07;;;;;;;28.02;17.58;;;1.10;99.90;;;;;;4942426;28;20050;-94
2024/01/18 05:52:44;;;;;;;24.92;15.43;;;1.10;99.90;;;;;;4960216;28;20031;-93
2024/01/18 05:55:10;;;;;;;25.92;15.15;;;1.20;99.90;;;;;;4947755;28;20134;-94
2024/01/18 05:57:41;;;;;;;26.65;16.75;;;1.20;99.90;;;;;;4945575;28;20067;-94
2024/01/18 06:00:08;;;;;;;31.30;15.23;;;1.20;99.90;;;;;;4942275;28;20492;-94
2024/01/18 06:02:33;;;;;;;36.38;19.50;;;1.10;99.90;;;;;;4960446;28;20027;-94
2024/01/18 06:05:09;;;;;;;33.20;19.10;;;1.10;99.90;;;;;;4945602;28;20041;-93
2024/01/18 06:07:35;;;;;;;33.75;19.17;;;1.10;99.90;;;;;;4947948;28;20086;-95
2024/01/18 06:10:00;;;;;;;36.30;18.95;;;1.10;99.90;;;;;;4946809;28;20031;-92
2024/01/18 06:12:26;;;;;;;34.20;18.27;;;1.10;99.90;;;;;;4944594;28;20762;-92
2024/01/18 06:14:52;;;;;;;35.83;19.17;;;1.00;99.90;;;;;;4945612;28;20040;-92
2024/01/18 06:17:25;;;;;;;33.33;19.05;;;1.00;99.90;;;;;;4946576;28;20051;-92
2024/01/18 06:19:51;;;;;;;30.00;16.17;;;1.00;99.90;;;;;;4963533;28;20039;-92
2024/01/18 06:22:16;;;;;;;32.55;18.65;;;1.00;99.90;;;;;;4938918;28;20626;-94
2024/01/18 06:24:42;;;;;;;33.55;20.23;;;1.00;99.90;;;;;;4944991;28;20031;-93
2024/01/18 06:27:08;;;;;;;28.33;17.27;;;1.00;99.90;;;;;;4945938;28;20130;-92
2024/01/18 06:29:35;;;;;;;27.50;15.90;;;1.00;99.90;;;;;;4941843;28;20032;-93
2024/01/18 06:32:02;;;;;;;27.73;16.77;;;0.90;99.90;;;;;;4942531;28;20047;-94
2024/01/18 06:34:28;;;;;;;27.90;19.33;;;0.90;99.90;;;;;;4963074;28;20034;-95
2024/01/18 06:36:53;;;;;;;27.15;16.90;;;0.90;99.90;;;;;;4976819;28;20039;-93
2024/01/18 06:39:28;;;;;;;30.63;17.48;;;0.90;99.90;;;;;;4962224;28;20146;-94
2024/01/18 06:42:03;;;;;;;30.02;15.90;;;0.80;99.90;;;;;;4981827;28;20039;-96
2024/01/18 06:44:28;;;;;;;29.42;17.13;;;0.80;99.90;;;;;;4943119;28;20031;-94
2024/01/18 06:46:54;;;;;;;30.13;15.38;;;0.80;99.90;;;;;;4943190;28;20039;-94
2024/01/18 06:49:20;;;;;;;26.42;15.90;;;0.70;99.90;;;;;;4943335;28;20071;-94
2024/01/18 06:51:46;;;;;;;30.77;15.23;;;0.70;99.90;;;;;;4948000;28;20087;-96
2024/01/18 06:54:21;;;;;;;31.85;13.23;;;0.70;99.90;;;;;;4945660;28;20427;-93
2024/01/18 06:56:47;;;;;;;29.05;18.00;;;0.80;99.90;;;;;;4970289;28;20039;-93
2024/01/18 06:59:14;;;;;;;41.05;20.48;;;0.70;99.90;;;;;;4949410;28;20062;-94
2024/01/18 07:01:40;;;;;;;43.63;20.17;;;0.70;99.90;;;;;;4959628;28;20066;-94
2024/01/18 07:04:06;;;;;;;46.50;21.42;;;0.70;99.90;;;;;;4950508;28;20033;-94
2024/01/18 07:06:35;;;;;;;60.13;27.25;;;0.80;99.90;;;;;;4961127;28;20031;-96
2024/01/18 07:09:00;;;;;;;39.17;20.70;;;0.70;99.90;;;;;;4962899;28;20035;-93
2024/01/18 07:11:26;;;;;;;68.18;33.70;;;0.70;99.90;;;;;;4954187;28;20018;-94
2024/01/18 07:13:52;;;;;;;50.35;22.13;;;0.70;99.90;;;;;;4950114;28;20035;-92
2024/01/18 07:16:17;;;;;;;53.88;28.83;;;0.70;99.90;;;;;;4950970;28;20038;-93
2024/01/18 07:18:43;;;;;;;53.58;26.60;;;0.70;99.90;;;;;;4948005;28;20077;-92
2024/01/18 07:21:09;;;;;;;54.40;24.00;;;0.70;99.90;;;;;;4944480;28;20085;-92
2024/01/18 07:23:34;;;;;;;46.17;22.95;;;0.70;99.90;;;;;;4967847;28;20066;-92
2024/01/18 07:26:07;;;;;;;35.15;20.05;;;0.60;99.90;;;;;;4947160;28;20118;-94
2024/01/18 07:28:33;;;;;;;44.05;22.02;;;0.60;99.90;;;;;;4951521;28;20027;-95
2024/01/18 07:31:00;;;;;;;43.13;21.83;;;0.60;99.90;;;;;;4945452;28;20027;-93
2024/01/18 07:33:26;;;;;;;37.35;18.08;;;0.50;99.90;;;;;;4951537;28;20031;-96
2024/01/18 07:35:52;;;;;;;38.42;20.13;;;0.50;99.90;;;;;;4971580;23;20031;-93
2024/01/18 07:38:18;;;;;;;44.47;22.95;;;0.50;99.90;;;;;;4967575;28;20304;-92
2024/01/18 07:40:46;;;;;;;41.67;20.60;;;0.60;99.90;;;;;;4962647;28;20110;-95
2024/01/18 07:43:11;;;;;;;37.15;20.05;;;0.60;99.90;;;;;;4978447;28;20035;-94
2024/01/18 07:45:37;;;;;;;26.38;16.10;;;0.50;99.90;;;;;;4964121;28;20116;-94
2024/01/18 07:48:03;;;;;;;25.63;15.57;;;0.50;99.90;;;;;;4981007;28;20060;-96
2024/01/18 07:50:30;;;;;;;25.23;14.80;;;0.50;99.90;;;;;;4964483;28;20027;-93
2024/01/18 07:52:56;;;;;;;22.15;12.32;;;0.50;99.90;;;;;;4979926;28;20102;-92
2024/01/18 07:55:22;;;;;;;22.90;12.32;;;0.40;99.90;;;;;;4964892;28;20039;-95
2024/01/18 07:57:51;;;;;;;22.98;14.27;;;0.40;99.90;;;;;;4964699;28;20039;-94
2024/01/18 08:00:18;;;;;;;23.75;13.23;;;0.40;99.90;;;;;;4959669;28;20045;-95
2024/01/18 08:02:44;;;;;;;18.92;13.07;;;0.40;99.90;;;;;;4963585;28;20031;-96
2024/01/18 08:05:10;;;;;;;21.42;14.70;;;0.40;99.90;;;;;;4961783;28;20046;-96
2024/01/18 08:07:36;;;;;;;18.70;13.55;;;0.40;99.90;;;;;;4966737;28;20030;-93
2024/01/18 08:10:02;;;;;;;19.98;12.63;;;0.30;99.90;;;;;;4974006;28;20019;-93
2024/01/18 08:12:27;;;;;;;18.58;10.43;;;0.30;99.90;;;;;;4968304;28;20039;-95
2024/01/18 08:14:53;;;;;;;65.55;59.58;;;0.30;99.90;;;;;;4966501;28;20061;-96
2024/01/18 08:17:19;;;;;;;20.58;13.05;;;0.30;99.90;;;;;;4964891;28;20103;-94
2024/01/18 08:19:57;;;;;;;21.70;12.77;;;0.30;99.90;;;;;;4964887;28;20094;-94
2024/01/18 08:22:22;;;;;;;22.38;15.15;;;0.30;99.90;;;;;;4964105;28;20091;-94
2024/01/18 08:24:48;;;;;;;22.67;14.60;;;0.30;99.90;;;;;;4962440;28;20039;-94
2024/01/18 08:27:14;;;;;;;19.83;13.35;;;0.30;99.90;;;;;;4981481;28;20414;-96
2024/01/18 08:29:40;;;;;;;25.13;14.00;;;0.30;99.90;;;;;;4988672;28;20033;-96
2024/01/18 08:32:06;;;;;;;20.88;14.05;;;0.30;99.90;;;;;;4967916;28;20033;-95
2024/01/18 08:34:35;;;;;;;24.42;14.93;;;0.30;99.90;;;;;;4971950;28;20038;-94
2024/01/18 08:37:01;;;;;;;26.10;16.08;;;0.30;99.90;;;;;;4986325;28;20041;-94
2024/01/18 08:39:27;;;;;;;22.08;14.68;;;0.30;99.90;;;;;;4966717;28;20038;-94
2024/01/18 08:41:59;;;;;;;24.08;13.65;;;0.30;99.90;;;;;;4962492;28;20043;-95
2024/01/18 08:44:28;;;;;;;31.58;17.08;;;0.30;99.90;;;;;;4981195;28;20027;-94
2024/01/18 08:46:54;;;;;;;20.67;12.88;;;0.20;99.90;;;;;;4963463;28;20031;-94
2024/01/18 08:49:26;;;;;;;23.98;12.73;;;0.20;99.90;;;;;;4961011;28;20039;-94
2024/01/18 08:51:52;;;;;;;22.70;13.25;;;0.20;99.90;;;;;;4958501;28;20055;-93
2024/01/18 08:54:20;;;;;;;21.27;12.52;;;0.20;99.90;;;;;;4978241;28;20031;-93
2024/01/18 08:56:47;;;;;;;20.88;12.57;;;0.20;99.90;;;;;;4982606;28;20036;-94
2024/01/18 08:59:12;;;;;;;24.10;14.13;;;0.20;99.90;;;;;;4960845;28;20027;-94
2024/01/18 09:01:38;;;;;;;20.55;13.55;;;0.20;99.90;;;;;;4980389;28;20030;-94
2024/01/18 09:04:16;;;;;;;23.42;13.80;;;0.10;99.90;;;;;;4978491;28;20023;-95
2024/01/18 09:06:43;;;;;;;18.20;12.02;;;0.20;99.90;;;;;;4964591;28;20099;-93
2024/01/18 09:09:16;;;;;;;19.63;12.95;;;0.20;99.90;;;;;;4970353;28;20374;-94
2024/01/18 09:11:50;;;;;;;18.23;12.63;;;0.20;99.90;;;;;;4968984;28;20032;-96
2024/01/18 09:14:18;;;;;;;16.90;12.15;;;0.20;99.90;;;;;;4964840;28;20007;-95
2024/01/18 09:16:44;;;;;;;18.17;11.85;;;0.20;99.90;;;;;;4958277;28;20050;-94
2024/01/18 09:19:13;;;;;;;18.65;13.98;;;0.10;99.90;;;;;;4961540;28;20035;-95
2024/01/18 09:21:44;;;;;;;16.42;12.65;;;0.20;99.90;;;;;;4958334;28;20035;-94
2024/01/18 09:24:10;;;;;;;16.63;11.68;;;0.10;99.90;;;;;;4971857;28;20058;-94
2024/01/18 09:26:36;;;;;;;13.93;10.98;;;0.10;99.90;;;;;;4970876;28;20038;-93
2024/01/18 09:29:02;;;;;;;16.05;10.07;;;0.10;99.90;;;;;;4956131;28;20047;-95
2024/01/18 09:31:28;;;;;;;16.05;12.45;;;-0.10;99.90;;;;;;4944706;28;20023;-92
2024/01/18 09:33:54;;;;;;;12.40;10.05;;;0.00;99.90;;;;;;4943906;28;20034;-92
2024/01/18 09:36:19;;;;;;;15.20;12.38;;;0.00;99.90;;;;;;4953837;28;20043;-91
2024/01/18 09:38:46;;;;;;;11.43;9.48;;;-0.10;99.90;;;;;;4943121;28;20159;-93
2024/01/18 09:41:15;;;;;;;12.68;9.35;;;-0.20;99.90;;;;;;4939576;28;21134;-93
2024/01/18 09:43:43;;;;;;;16.25;10.30;;;-0.20;99.90;;;;;;4946805;28;20058;-92
2024/01/18 09:46:11;;;;;;;13.73;12.15;;;-0.20;99.90;;;;;;4947702;28;20031;-91
2024/01/18 09:48:37;;;;;;;17.77;11.55;;;-0.20;99.90;;;;;;4951427;28;20096;-93
2024/01/18 09:51:06;;;;;;;17.90;11.73;;;-0.30;99.90;;;;;;4947800;28;20067;-92
2024/01/18 09:53:33;;;;;;;15.88;11.77;;;-0.30;99.90;;;;;;4951093;28;20050;-94
2024/01/18 09:56:05;;;;;;;15.32;10.73;;;-0.30;99.90;;;;;;4955759;28;20413;-93
2024/01/18 09:58:32;;;;;;;16.23;10.10;;;-0.30;99.90;;;;;;4951391;28;20039;-92
2024/01/18 10:01:04;;;;;;;13.43;10.00;;;-0.40;99.90;;;;;;4949126;28;20075;-93
2024/01/18 10:03:30;;;;;;;11.70;9.18;;;-0.40;99.90;;;;;;4950163;28;20043;-92
2024/01/18 10:05:56;;;;;;;12.93;9.45;;;-0.50;99.90;;;;;;4950597;28;20063;-94
2024/01/18 10:08:22;;;;;;;11.07;7.63;;;-0.50;99.90;;;;;;4954441;28;20027;-94
2024/01/18 10:10:47;;;;;;;12.20;8.25;;;-0.60;99.90;;;;;;4949803;28;20011;-94
2024/01/18 10:13:13;;;;;;;18.15;9.95;;;-0.60;99.90;;;;;;4953458;28;20310;-93
2024/01/18 10:15:39;;;;;;;12.55;11.35;;;-0.60;99.90;;;;;;4947968;28;20039;-94
2024/01/18 10:18:06;;;;;;;15.15;10.20;;;-0.50;99.90;;;;;;4956696;28;20026;-91
2024/01/18 10:20:32;;;;;;;12.70;9.27;;;-0.50;99.90;;;;;;4968586;28;20094;-93
2024/01/18 10:23:06;;;;;;;16.35;10.70;;;-0.30;99.90;;;;;;4982665;28;20095;-92
2024/01/18 10:25:33;;;;;;;11.57;9.27;;;-0.30;99.90;;;;;;4988118;28;20027;-93
2024/01/18 10:27:59;;;;;;;13.20;10.63;;;-0.40;99.90;;;;;;4970703;28;20031;-94
2024/01/18 10:30:26;;;;;;;15.73;9.10;;;-0.50;99.90;;;;;;4984640;28;20038;-92
2024/01/18 10:32:56;;;;;;;12.98;10.93;;;-0.40;99.90;;;;;;4987200;28;20050;-93
2024/01/18 10:35:28;;;;;;;13.23;10.23;;;-0.40;99.90;;;;;;4991055;28;20038;-93
2024/01/18 10:38:01;;;;;;;15.25;11.88;;;-0.40;99.90;;;;;;4990170;28;20031;-93
2024/01/18 10:40:33;;;;;;;23.13;12.05;;;-0.40;99.90;;;;;;4980368;28;20517;-94
2024/01/18 10:43:03;;;;;;;59.63;21.65;;;-0.30;99.90;;;;;;4982305;28;20058;-94
2024/01/18 10:45:31;;;;;;;18.25;11.00;;;-0.20;99.90;;;;;;4992805;28;20059;-93
2024/01/18 10:48:01;;;;;;;13.80;9.45;;;-0.30;99.90;;;;;;4979630;28;20023;-93
2024/01/18 10:50:34;;;;;;;12.10;10.55;;;-0.20;99.90;;;;;;4980896;28;20037;-93
2024/01/18 10:53:00;;;;;;;20.88;14.90;;;-0.10;99.90;;;;;;4971828;28;20027;-93
2024/01/18 10:55:26;;;;;;;12.50;7.90;;;-0.20;99.90;;;;;;4984773;28;20456;-93
2024/01/18 10:57:55;;;;;;;15.55;10.57;;;-0.10;99.90;;;;;;4998386;28;20038;-93
2024/01/18 11:00:24;;;;;;;13.23;9.15;;;-0.10;99.90;;;;;;4988809;28;20031;-93
2024/01/18 11:02:51;;;;;;;11.18;9.20;;;-0.10;99.90;;;;;;4994625;28;20066;-94
2024/01/18 11:05:21;;;;;;;12.88;10.00;;;-0.10;99.90;;;;;;4974506;28;20082;-94
2024/01/18 11:07:47;;;;;;;12.15;10.23;;;-0.20;99.90;;;;;;4996362;28;20524;-94
2024/01/18 11:10:39;;;;;;;11.90;8.90;;;-0.20;99.90;;;;;;4981077;28;20039;-93
2024/01/18 11:13:09;;;;;;;14.88;10.93;;;-0.30;99.90;;;;;;4968986;28;20039;-92
2024/01/18 11:15:41;;;;;;;17.77;10.52;;;-0.20;99.90;;;;;;4993079;28;20030;-94
2024/01/18 11:18:29;;;;;;;14.90;10.82;;;-0.10;99.90;;;;;;4992005;28;20023;-93
2024/01/18 11:20:58;;;;;;;12.93;11.18;;;-0.10;99.90;;;;;;4964222;28;20047;-90
2024/01/18 11:23:46;;;;;;;14.00;10.73;;;0.10;99.90;;;;;;4969566;28;20030;-93
2024/01/18 11:27:00;;;;;;;14.25;10.30;;;0.20;99.90;;;;;;4965646;28;20051;-96
2024/01/18 11:29:58;;;;;;;19.05;12.57;;;0.20;99.90;;;;;;4976729;28;20565;-95
2024/01/18 11:32:37;;;;;;;17.20;11.75;;;0.30;99.90;;;;;;4977177;28;20031;-94
2024/01/18 11:36:06;;;;;;;15.80;10.85;;;0.40;99.90;;;;;;4985201;28;20031;-95
2024/01/18 11:39:16;;;;;;;13.23;10.25;;;0.30;99.90;;;;;;5009988;28;20019;-94
2024/01/18 11:47:25;;;;;;;14.45;11.02;;;0.10;99.90;;;;;;4648526;26;20055;-92
2024/01/18 11:49:50;;;;;;;17.05;14.50;;;0.00;99.90;;;;;;4965265;28;20039;-91
2024/01/18 11:52:22;;;;;;;20.05;14.23;;;0.10;99.90;;;;;;4981907;28;20493;-91
2024/01/18 11:54:55;;;;;;;16.67;11.65;;;0.10;99.90;;;;;;4995063;28;20049;-94
2024/01/18 11:57:29;;;;;;;31.40;19.70;;;0.00;99.90;;;;;;4984567;28;20019;-93
2024/01/18 12:00:31;;;;;;;25.88;16.05;;;0.10;99.90;;;;;;4983041;28;20233;-91
2024/01/18 12:09:30;;;;;;;15.85;12.63;;;0.20;99.90;;;;;;4882834;29;20051;-90
2024/01/18 12:12:00;;;;;;;18.85;13.35;;;0.10;99.90;;;;;;4875277;29;20029;-90
2024/01/18 12:17:46;;;;;;;18.17;12.88;;;0.20;99.90;;;;;;5021602;23;20062;-90
2024/01/18 12:20:52;;;;;;;;;;;;;;;;;;;;;
2024/01/18 12:27:19;;;;;;;15.35;12.38;;;0.20;99.90;;;;;;4959320;28;20111;-91
2024/01/18 12:30:40;;;;;;;18.23;12.27;;;0.20;99.90;;;;;;4953407;28;20047;-92
2024/01/18 12:33:48;;;;;;;20.65;12.68;;;0.20;99.90;;;;;;4907152;28;20039;-93
2024/01/18 12:36:26;;;;;;;17.23;12.32;;;0.10;99.90;;;;;;4927320;29;20071;-91
2024/01/18 12:39:21;;;;;;;20.25;11.82;;;0.10;99.90;;;;;;4927815;29;20036;-92
2024/01/18 12:45:42;;;;;;;22.90;15.90;;;0.10;99.90;;;;;;4920500;29;20035;-91
2024/01/18 12:48:37;;;;;;;21.65;15.18;;;0.20;99.90;;;;;;4937488;28;20042;-92
2024/01/18 12:51:03;;;;;;;19.42;13.02;;;0.20;99.90;;;;;;4940522;28;20043;-91
2024/01/18 12:53:37;;;;;;;20.65;14.50;;;0.20;99.90;;;;;;4954989;28;20095;-91
2024/01/18 12:56:39;;;;;;;17.63;14.70;;;0.20;99.90;;;;;;4943531;28;20039;-91
2024/01/18 12:59:16;;;;;;;20.98;17.27;;;0.20;99.90;;;;;;4944769;28;20182;-92
2024/01/18 13:02:19;;;;;;;;;;;;;;;;;;;;;
2024/01/18 13:08:08;;;;;;;19.30;12.20;;;0.20;99.90;;;;;;4938163;28;20050;-92
2024/01/18 13:10:47;;;;;;;19.80;14.05;;;0.30;99.90;;;;;;4946182;28;20031;-91
2024/01/18 13:13:41;;;;;;;23.48;18.80;;;0.20;99.90;;;;;;4939869;28;20027;-91
2024/01/18 13:16:06;;;;;;;23.73;14.35;;;0.30;99.90;;;;;;4940450;28;20063;-92
2024/01/18 13:18:42;;;;;;;18.30;12.68;;;0.30;99.90;;;;;;4945016;28;20032;-90